createdAt,value
2022-08-21T00:01:43.109Z,100837.69
2022-08-21T00:04:10.865Z,100833.66
2022-08-21T00:06:41.663Z,100831.50
2022-08-21T00:09:09.615Z,100822.53
2022-08-21T00:11:38.451Z,100821.72
2022-08-21T00:14:07.737Z,100831.75
2022-08-21T00:16:34.355Z,100820.72
2022-08-21T00:19:00.982Z,100821.91
2022-08-21T00:21:28.058Z,100820.38
2022-08-21T00:23:54.670Z,100814.53
2022-08-21T00:26:21.335Z,100809.97
2022-08-21T00:28:49.785Z,100810.91
2022-08-21T00:31:17.592Z,100804.50
2022-08-21T00:33:45.791Z,100805.22
2022-08-21T00:36:13.180Z,100805.59
2022-08-21T00:38:40.641Z,100795.94
2022-08-21T00:41:37.386Z,100810.53
2022-08-21T00:43:57.474Z,100809.25
2022-08-21T00:46:28.142Z,100805.88
2022-08-21T00:48:57.259Z,100805.50
2022-08-21T00:51:49.514Z,100806.78
2022-08-21T00:54:19.581Z,100820.59
2022-08-21T00:56:51.146Z,100817.75
2022-08-21T00:59:21.260Z,100814.44
2022-08-21T01:01:49.566Z,100810.59
2022-08-21T01:04:17.386Z,100818.41
2022-08-21T01:06:44.605Z,100807.94
2022-08-21T01:09:11.777Z,100804.97
2022-08-21T01:11:38.568Z,100806.91
2022-08-21T01:14:05.233Z,100810.03
2022-08-21T01:16:33.581Z,100807.13
2022-08-21T01:19:00.357Z,100810.75
2022-08-21T01:21:28.955Z,100814.69
2022-08-21T01:23:57.247Z,100811.13
2022-08-21T01:26:33.693Z,100819.41
2022-08-21T01:29:07.987Z,100826.97
2022-08-21T01:31:35.037Z,100819.19
2022-08-21T01:34:01.776Z,100815.56
2022-08-21T01:36:28.943Z,100816.41
2022-08-21T01:38:56.947Z,100824.59
2022-08-21T01:41:24.247Z,100822.66
2022-08-21T01:43:51.000Z,100827.13
2022-08-21T01:46:17.961Z,100823.50
2022-08-21T01:48:44.809Z,100817.22
2022-08-21T01:51:12.631Z,100816.13
2022-08-21T01:53:39.556Z,100819.88
2022-08-21T01:56:11.903Z,100809.53
2022-08-21T01:58:41.952Z,100810.97
2022-08-21T02:01:10.305Z,100807.75
2022-08-21T02:03:37.985Z,100808.06
2022-08-21T02:06:06.459Z,100803.16
2022-08-21T02:08:33.954Z,100800.31
2022-08-21T02:11:01.122Z,100795.69
2022-08-21T02:13:27.836Z,100803.00
2022-08-21T02:15:54.482Z,100800.25
2022-08-21T02:18:21.206Z,100806.94
2022-08-21T02:20:49.553Z,100800.06
2022-08-21T02:23:26.765Z,100794.56
2022-08-21T02:25:55.032Z,100793.88
2022-08-21T02:28:22.383Z,100794.38
2022-08-21T02:30:50.023Z,100788.06
2022-08-21T02:33:17.330Z,100782.94
2022-08-21T02:35:45.344Z,100789.50
2022-08-21T02:38:15.277Z,100793.25
2022-08-21T02:40:48.433Z,100784.03
2022-08-21T02:43:19.744Z,100790.50
2022-08-21T02:45:47.445Z,100799.00
2022-08-21T02:48:17.562Z,100792.00
2022-08-21T02:50:48.502Z,100798.56
2022-08-21T02:53:17.412Z,100793.84
2022-08-21T02:55:49.429Z,100792.00
2022-08-21T02:58:20.072Z,100794.38
2022-08-21T03:00:47.452Z,100796.38
2022-08-21T03:03:15.452Z,100804.28
2022-08-21T03:05:44.061Z,100794.13
2022-08-21T03:08:12.912Z,100796.63
2022-08-21T03:10:42.035Z,100793.75
2022-08-21T03:13:08.955Z,100789.91
2022-08-21T03:15:35.666Z,100784.38
2022-08-21T03:18:05.567Z,100782.41
2022-08-21T03:20:33.404Z,100790.50
2022-08-21T03:23:01.458Z,100788.56
2022-08-21T03:25:39.742Z,100784.94
2022-08-21T03:28:13.199Z,100778.19
2022-08-21T03:30:45.719Z,100781.03
2022-08-21T03:33:15.223Z,100778.59
2022-08-21T03:35:48.057Z,100775.34
2022-08-21T03:38:14.832Z,100780.19
2022-08-21T03:40:42.990Z,100774.38
2022-08-21T03:43:10.297Z,100781.88
2022-08-21T03:45:37.208Z,100792.19
2022-08-21T03:48:05.729Z,100784.25
2022-08-21T03:50:35.597Z,100783.66
2022-08-21T03:53:08.465Z,100777.69
2022-08-21T03:55:44.142Z,100780.69
2022-08-21T03:58:16.674Z,100768.63
2022-08-21T04:00:46.796Z,100785.56
2022-08-21T04:03:13.631Z,100784.94
2022-08-21T04:05:40.458Z,100789.56
2022-08-21T04:08:07.611Z,100786.66
2022-08-21T04:10:37.697Z,100784.72
2022-08-21T04:13:05.714Z,100787.84
2022-08-21T04:15:32.483Z,100792.34
2022-08-21T04:17:59.836Z,100794.50
2022-08-21T04:20:27.083Z,100790.06
2022-08-21T04:22:54.801Z,100794.78
2022-08-21T04:25:23.580Z,100791.88
2022-08-21T04:27:50.644Z,100794.53
2022-08-21T04:30:17.832Z,100799.88
2022-08-21T04:32:46.295Z,100800.47
2022-08-21T04:35:14.318Z,100795.00
2022-08-21T04:37:42.231Z,100793.47
2022-08-21T04:40:11.802Z,100800.13
2022-08-21T04:42:45.636Z,100798.00
2022-08-21T04:45:25.280Z,100809.41
2022-08-21T04:47:53.940Z,100801.94
2022-08-21T04:50:28.164Z,100800.34
2022-08-21T04:53:06.294Z,100804.81
2022-08-21T04:55:33.271Z,100805.41
2022-08-21T04:58:00.497Z,100801.66
2022-08-21T05:00:27.702Z,100808.34
2022-08-21T05:02:57.469Z,100806.41
2022-08-21T05:05:25.359Z,100811.59
2022-08-21T05:07:54.017Z,100807.59
2022-08-21T05:10:21.357Z,100807.81
2022-08-21T05:12:48.103Z,100812.44
2022-08-21T05:15:15.080Z,100812.06
2022-08-21T05:17:42.660Z,100811.34
2022-08-21T05:20:14.724Z,100816.19
2022-08-21T05:22:42.202Z,100823.34
2022-08-21T05:25:10.881Z,100823.09
2022-08-21T05:27:39.571Z,100817.41
2022-08-21T05:30:08.536Z,100811.97
2022-08-21T05:32:36.551Z,100816.34
2022-08-21T05:35:06.004Z,100813.66
2022-08-21T05:37:32.989Z,100818.75
2022-08-21T05:40:05.377Z,100817.38
2022-08-21T05:42:54.395Z,100814.56
2022-08-21T05:45:31.599Z,100815.16
2022-08-21T05:48:17.353Z,100820.03
2022-08-21T05:50:45.789Z,100822.72
2022-08-21T05:53:13.772Z,100820.53
2022-08-21T05:55:45.685Z,100822.47
2022-08-21T05:58:19.138Z,100819.81
2022-08-21T06:00:48.146Z,100821.97
2022-08-21T06:03:21.835Z,100814.31
2022-08-21T06:05:48.855Z,100811.25
2022-08-21T06:08:17.745Z,100809.31
2022-08-21T06:10:46.078Z,100811.72
2022-08-21T06:13:13.658Z,100801.97
2022-08-21T06:15:40.406Z,100799.72
2022-08-21T06:18:07.419Z,100798.97
2022-08-21T06:20:34.304Z,100794.31
2022-08-21T06:23:01.703Z,100792.19
2022-08-21T06:25:28.755Z,100798.97
2022-08-21T06:28:05.527Z,100796.28
2022-08-21T06:30:33.067Z,100805.50
2022-08-21T06:33:00.134Z,100809.53
2022-08-21T06:35:27.375Z,100810.91
2022-08-21T06:37:53.962Z,100807.63
2022-08-21T06:40:20.643Z,100808.97
2022-08-21T06:42:48.550Z,100809.91
2022-08-21T06:45:16.635Z,100807.72
2022-08-21T06:47:43.243Z,100806.72
2022-08-21T06:50:10.760Z,100799.25
2022-08-21T06:52:38.256Z,100791.66
2022-08-21T06:55:10.481Z,100797.44
2022-08-21T06:57:37.338Z,100804.03
2022-08-21T07:00:07.354Z,100810.97
2022-08-21T07:02:34.717Z,100808.59
2022-08-21T07:05:02.079Z,100801.81
2022-08-21T07:07:45.389Z,100801.16
2022-08-21T07:10:21.969Z,100797.94
2022-08-21T07:12:51.054Z,100796.59
2022-08-21T07:15:20.298Z,100801.84
2022-08-21T07:17:46.906Z,100796.56
2022-08-21T07:20:13.940Z,100797.25
2022-08-21T07:22:41.938Z,100798.25
2022-08-21T07:25:09.074Z,100788.63
2022-08-21T07:27:35.800Z,100795.09
2022-08-21T07:30:02.629Z,100799.09
2022-08-21T07:32:29.549Z,100799.69
2022-08-21T07:34:56.873Z,100791.25
2022-08-21T07:37:23.598Z,100798.78
2022-08-21T07:39:51.957Z,100789.97
2022-08-21T07:42:18.722Z,100799.63
2022-08-21T07:44:45.553Z,100803.81
2022-08-21T07:47:12.358Z,100790.59
2022-08-21T07:49:39.293Z,100799.06
2022-08-21T07:52:06.127Z,100795.94
2022-08-21T07:54:33.823Z,100795.66
2022-08-21T07:57:01.930Z,100786.16
2022-08-21T07:59:29.408Z,100793.59
2022-08-21T08:01:57.475Z,100789.88
2022-08-21T08:04:26.460Z,100796.91
2022-08-21T08:06:53.945Z,100797.34
2022-08-21T08:09:20.776Z,100796.63
2022-08-21T08:11:47.596Z,100798.13
2022-08-21T08:14:14.273Z,100801.13
2022-08-21T08:16:40.972Z,100793.34
2022-08-21T08:19:07.701Z,100796.09
2022-08-21T08:21:35.248Z,100792.72
2022-08-21T08:24:18.498Z,100792.72
2022-08-21T08:26:46.997Z,100787.41
2022-08-21T08:29:22.317Z,100798.72
2022-08-21T08:31:49.096Z,100799.69
2022-08-21T08:34:25.361Z,100802.59
2022-08-21T08:36:52.476Z,100788.09
2022-08-21T08:39:27.053Z,100796.78
2022-08-21T08:42:33.573Z,100791.81
2022-08-21T08:45:14.520Z,100788.53
2022-08-21T08:47:46.328Z,100797.34
2022-08-21T08:50:29.744Z,100787.88
2022-08-21T08:53:05.818Z,100790.00
2022-08-21T08:55:40.235Z,100794.44
2022-08-21T08:58:09.754Z,100788.63
2022-08-21T09:00:38.812Z,100796.13
2022-08-21T09:03:05.522Z,100781.66
2022-08-21T09:06:08.258Z,100783.22
2022-08-21T09:08:59.527Z,100784.44
2022-08-21T09:11:49.528Z,100784.69
2022-08-21T09:14:16.271Z,100784.09
2022-08-21T09:17:14.755Z,100784.41
2022-08-21T09:20:12.738Z,100782.63
2022-08-21T09:23:03.739Z,100781.38
2022-08-21T09:25:46.651Z,100781.38
2022-08-21T09:28:15.731Z,100775.47
2022-08-21T09:30:43.030Z,100776.13
2022-08-21T09:33:13.655Z,100776.00
2022-08-21T09:36:00.222Z,100773.78
2022-08-21T09:38:38.769Z,100769.41
2022-08-21T09:41:11.160Z,100775.53
2022-08-21T09:43:39.318Z,100775.22
2022-08-21T09:46:12.504Z,100766.81
2022-08-21T09:48:48.173Z,100775.88
2022-08-21T09:51:21.493Z,100767.00
2022-08-21T09:53:57.555Z,100772.31
2022-08-21T09:56:54.065Z,100768.69
2022-08-21T09:59:26.610Z,100763.78
2022-08-21T10:01:55.320Z,100765.31
2022-08-21T10:04:34.025Z,100756.06
2022-08-21T10:07:13.490Z,100756.59
2022-08-21T10:09:41.706Z,100767.72
2022-08-21T10:12:21.393Z,100762.59
2022-08-21T10:14:57.484Z,100759.34
2022-08-21T10:17:36.444Z,100757.13
2022-08-21T10:20:11.380Z,100765.53
2022-08-21T10:23:03.438Z,100758.41
2022-08-21T10:26:13.633Z,100773.06
2022-08-21T10:28:49.146Z,100753.16
2022-08-21T10:31:54.892Z,100745.63
2022-08-21T10:34:33.645Z,100754.38
2022-08-21T10:37:22.114Z,100746.22
2022-08-21T10:40:10.046Z,100755.75
2022-08-21T10:42:56.473Z,100745.38
2022-08-21T10:45:45.055Z,100743.16
2022-08-21T10:48:22.876Z,100749.91
2022-08-21T10:50:56.598Z,100752.44
2022-08-21T10:53:50.755Z,100747.06
2022-08-21T10:56:29.523Z,100741.47
2022-08-21T10:59:08.056Z,100737.84
2022-08-21T11:01:47.511Z,100741.78
2022-08-21T11:04:21.843Z,100737.84
2022-08-21T11:06:58.002Z,100742.66
2022-08-21T11:09:27.414Z,100737.03
2022-08-21T11:12:10.916Z,100743.75
2022-08-21T11:15:02.879Z,100738.09
2022-08-21T11:17:45.050Z,100743.16
2022-08-21T11:20:19.001Z,100739.50
2022-08-21T11:23:03.006Z,100738.75
2022-08-21T11:25:43.915Z,100735.09
2022-08-21T11:28:21.525Z,100733.13
2022-08-21T11:31:16.806Z,100732.56
2022-08-21T11:34:11.067Z,100743.22
2022-08-21T11:36:45.241Z,100737.63
2022-08-21T11:39:48.650Z,100741.00
2022-08-21T11:42:32.102Z,100736.47
2022-08-21T11:45:32.467Z,100737.03
2022-08-21T11:48:26.396Z,100747.16
2022-08-21T11:50:54.955Z,100736.19
2022-08-21T11:53:40.692Z,100736.22
2022-08-21T11:56:22.996Z,100738.72
2022-08-21T11:58:55.027Z,100746.03
2022-08-21T12:01:36.624Z,100750.78
2022-08-21T12:04:09.272Z,100749.09
2022-08-21T12:06:42.574Z,100738.69
2022-08-21T12:09:24.488Z,100732.53
2022-08-21T12:12:03.878Z,100730.50
2022-08-21T12:14:43.520Z,100726.59
2022-08-21T12:17:22.379Z,100731.09
2022-08-21T12:20:00.811Z,100732.47
2022-08-21T12:22:39.845Z,100727.94
2022-08-21T12:25:12.176Z,100720.06
2022-08-21T12:27:52.680Z,100723.75
2022-08-21T12:30:28.300Z,100720.38
2022-08-21T12:32:59.863Z,100721.47
2022-08-21T12:35:33.753Z,100725.16
2022-08-21T12:38:09.493Z,100720.06
2022-08-21T12:40:57.556Z,100718.63
2022-08-21T12:43:33.942Z,100719.69
2022-08-21T12:46:01.752Z,100723.09
2022-08-21T12:48:34.376Z,100719.75
2022-08-21T12:51:25.407Z,100719.97
2022-08-21T12:53:57.882Z,100721.63
2022-08-21T12:56:28.104Z,100723.25
2022-08-21T12:59:03.969Z,100713.09
2022-08-21T13:01:44.866Z,100713.69
2022-08-21T13:04:14.044Z,100711.44
2022-08-21T13:06:44.582Z,100715.91
2022-08-21T13:09:15.920Z,100699.91
2022-08-21T13:11:45.948Z,100709.53
2022-08-21T13:14:26.979Z,100706.13
2022-08-21T13:16:56.842Z,100710.34
2022-08-21T13:19:25.025Z,100715.09
2022-08-21T13:21:53.485Z,100712.22
2022-08-21T13:24:42.471Z,100709.72
2022-08-21T13:27:28.864Z,100706.91
2022-08-21T13:30:10.871Z,100713.69
2022-08-21T13:32:42.943Z,100708.56
2022-08-21T13:35:13.250Z,100710.72
2022-08-21T13:37:43.039Z,100702.91
2022-08-21T13:40:19.788Z,100707.34
2022-08-21T13:42:49.180Z,100702.94
2022-08-21T13:45:28.373Z,100697.63
2022-08-21T13:47:56.014Z,100697.88
2022-08-21T13:50:25.695Z,100704.13
2022-08-21T13:53:04.395Z,100700.44
2022-08-21T13:55:44.035Z,100699.00
2022-08-21T13:58:12.108Z,100697.88
2022-08-21T14:00:51.505Z,100696.81
2022-08-21T14:03:43.007Z,100694.72
2022-08-21T14:06:20.132Z,100695.19
2022-08-21T14:09:16.992Z,100697.03
2022-08-21T14:11:43.814Z,100696.69
2022-08-21T14:14:24.200Z,100702.91
2022-08-21T14:17:24.449Z,100696.94
2022-08-21T14:19:49.548Z,100703.75
2022-08-21T14:22:35.787Z,100699.97
2022-08-21T14:25:13.570Z,100700.69
2022-08-21T14:27:45.829Z,100701.03
2022-08-21T14:30:19.313Z,100695.41
2022-08-21T14:32:48.506Z,100696.03
2022-08-21T14:35:18.370Z,100699.69
2022-08-21T14:37:53.854Z,100696.03
2022-08-21T14:40:23.416Z,100696.66
2022-08-21T14:42:52.909Z,100698.56
2022-08-21T14:45:27.712Z,100695.16
2022-08-21T14:47:55.643Z,100690.09
2022-08-21T14:50:22.673Z,100694.06
2022-08-21T14:52:50.181Z,100685.03
2022-08-21T14:55:18.626Z,100684.69
2022-08-21T14:57:48.962Z,100689.09
2022-08-21T15:00:20.553Z,100686.63
2022-08-21T15:02:47.524Z,100685.47
2022-08-21T15:05:16.689Z,100689.22
2022-08-21T15:07:53.198Z,100688.16
2022-08-21T15:10:20.122Z,100690.34
2022-08-21T15:12:46.917Z,100685.66
2022-08-21T15:15:13.677Z,100695.34
2022-08-21T15:17:48.147Z,100691.94
2022-08-21T15:20:15.419Z,100686.81
2022-08-21T15:22:42.083Z,100688.22
2022-08-21T15:25:14.845Z,100679.28
2022-08-21T15:27:41.482Z,100686.22
2022-08-21T15:30:08.891Z,100684.78
2022-08-21T15:32:35.535Z,100681.97
2022-08-21T15:35:03.182Z,100678.31
2022-08-21T15:37:30.025Z,100678.81
2022-08-21T15:39:57.161Z,100682.78
2022-08-21T15:42:27.762Z,100681.22
2022-08-21T15:44:56.774Z,100684.41
2022-08-21T15:47:28.368Z,100680.72
2022-08-21T15:49:55.127Z,100675.22
2022-08-21T15:52:22.399Z,100681.97
2022-08-21T15:54:49.857Z,100683.03
2022-08-21T15:57:24.758Z,100676.28
2022-08-21T15:59:55.596Z,100678.31
2022-08-21T16:02:26.393Z,100680.94
2022-08-21T16:04:53.673Z,100672.84
2022-08-21T16:07:20.999Z,100679.69
2022-08-21T16:09:47.891Z,100681.72
2022-08-21T16:12:21.829Z,100679.75
2022-08-21T16:14:50.560Z,100675.78
2022-08-21T16:17:17.433Z,100682.56
2022-08-21T16:19:44.396Z,100670.72
2022-08-21T16:22:11.025Z,100668.44
2022-08-21T16:24:37.903Z,100674.06
2022-08-21T16:27:08.131Z,100674.69
2022-08-21T16:29:37.612Z,100688.44
2022-08-21T16:32:05.734Z,100680.84
2022-08-21T16:34:32.536Z,100676.22
2022-08-21T16:36:59.194Z,100671.97
2022-08-21T16:39:26.086Z,100684.72
2022-08-21T16:41:52.766Z,100684.75
2022-08-21T16:44:21.433Z,100676.88
2022-08-21T16:46:48.272Z,100680.19
2022-08-21T16:49:15.133Z,100677.28
2022-08-21T16:51:41.796Z,100682.41
2022-08-21T16:54:09.173Z,100683.34
2022-08-21T16:56:39.792Z,100676.88
2022-08-21T16:59:07.664Z,100674.13
2022-08-21T17:01:36.951Z,100673.72
2022-08-21T17:04:04.158Z,100684.78
2022-08-21T17:06:31.169Z,100677.44
2022-08-21T17:08:59.243Z,100686.72
2022-08-21T17:11:37.826Z,100688.78
2022-08-21T17:14:09.070Z,100679.75
2022-08-21T17:16:36.869Z,100682.25
2022-08-21T17:19:04.016Z,100674.91
2022-08-21T17:21:30.727Z,100674.06
2022-08-21T17:23:57.405Z,100671.56
2022-08-21T17:26:25.139Z,100677.44
2022-08-21T17:28:54.837Z,100677.97
2022-08-21T17:31:22.719Z,100671.88
2022-08-21T17:33:53.686Z,100682.88
2022-08-21T17:36:26.118Z,100679.25
2022-08-21T17:38:53.707Z,100676.50
2022-08-21T17:41:21.199Z,100680.41
2022-08-21T17:43:49.670Z,100681.53
2022-08-21T17:46:20.792Z,100670.81
2022-08-21T17:48:47.685Z,100673.88
2022-08-21T17:51:15.443Z,100668.00
2022-08-21T17:53:42.529Z,100679.31
2022-08-21T17:56:09.616Z,100680.19
2022-08-21T17:58:37.885Z,100681.03
2022-08-21T18:01:05.826Z,100674.56
2022-08-21T18:03:38.228Z,100676.91
2022-08-21T18:06:06.287Z,100677.50
2022-08-21T18:08:33.507Z,100681.19
2022-08-21T18:11:00.945Z,100680.69
2022-08-21T18:13:33.288Z,100675.69
2022-08-21T18:16:01.112Z,100688.03
2022-08-21T18:18:32.719Z,100682.41
2022-08-21T18:20:59.473Z,100673.69
2022-08-21T18:23:44.351Z,100677.94
2022-08-21T18:26:14.453Z,100683.28
2022-08-21T18:28:41.620Z,100685.84
2022-08-21T18:31:10.733Z,100686.41
2022-08-21T18:33:39.400Z,100691.78
2022-08-21T18:36:10.272Z,100685.34
2022-08-21T18:38:37.919Z,100686.16
2022-08-21T18:41:10.068Z,100687.03
2022-08-21T18:43:38.383Z,100685.34
2022-08-21T18:46:05.289Z,100689.00
2022-08-21T18:48:32.505Z,100705.88
2022-08-21T18:50:59.709Z,100690.97
2022-08-21T18:53:27.970Z,100690.44
2022-08-21T18:55:57.161Z,100697.44
2022-08-21T18:58:25.571Z,100696.03
2022-08-21T19:00:54.087Z,100699.41
2022-08-21T19:03:23.955Z,100694.91
2022-08-21T19:05:52.970Z,100705.00
2022-08-21T19:08:22.456Z,100706.69
2022-08-21T19:10:51.115Z,100697.97
2022-08-21T19:13:20.570Z,100695.72
2022-08-21T19:15:52.981Z,100704.16
2022-08-21T19:18:28.381Z,100711.72
2022-08-21T19:20:56.063Z,100703.28
2022-08-21T19:23:29.333Z,100713.41
2022-08-21T19:26:00.682Z,100713.09
2022-08-21T19:28:35.393Z,100710.84
2022-08-21T19:31:34.015Z,100712.25
2022-08-21T19:34:21.909Z,100712.50
2022-08-21T19:36:48.728Z,100715.59
2022-08-21T19:39:17.640Z,100723.16
2022-08-21T19:44:36.961Z,100727.66
2022-08-21T19:47:13.240Z,100724.25
2022-08-21T19:49:50.726Z,100718.19
2022-08-21T19:52:18.417Z,100728.03
2022-08-21T19:54:46.407Z,100727.19
2022-08-21T19:57:13.387Z,100717.13
2022-08-21T19:59:41.337Z,100725.53
2022-08-21T20:02:09.770Z,100717.16
2022-08-21T20:04:36.912Z,100722.19
2022-08-21T20:07:04.532Z,100725.56
2022-08-21T20:09:36.825Z,100725.88
2022-08-21T20:12:10.042Z,100727.91
2022-08-21T20:14:44.323Z,100722.00
2022-08-21T20:17:12.627Z,100726.78
2022-08-21T20:19:41.951Z,100732.13
2022-08-21T20:22:10.331Z,100734.66
2022-08-21T20:24:37.104Z,100729.56
2022-08-21T20:27:06.311Z,100731.00
2022-08-21T20:29:38.968Z,100727.06
2022-08-21T20:32:12.212Z,100736.28
2022-08-21T20:34:55.520Z,100734.03
2022-08-21T20:37:36.565Z,100744.09
2022-08-21T20:40:11.153Z,100733.16
2022-08-21T20:42:45.412Z,100727.53
2022-08-21T20:45:18.663Z,100741.81
2022-08-21T20:47:52.745Z,100734.44
2022-08-21T20:50:22.525Z,100727.06
2022-08-21T20:52:52.255Z,100720.91
2022-08-21T20:55:29.401Z,100731.09
2022-08-21T20:58:15.423Z,100733.34
2022-08-21T21:00:43.309Z,100729.38
2022-08-21T21:03:17.191Z,100727.75
2022-08-21T21:06:04.582Z,100723.19
2022-08-21T21:08:36.878Z,100722.38
2022-08-21T21:11:16.981Z,100729.91
2022-08-21T21:13:46.855Z,100732.72
2022-08-21T21:16:27.318Z,100728.28
2022-08-21T21:19:00.627Z,100726.06
2022-08-21T21:21:37.809Z,100731.97
2022-08-21T21:24:12.584Z,100726.06
2022-08-21T21:26:52.152Z,100728.88
2022-08-21T21:29:24.955Z,100725.47
2022-08-21T21:31:54.202Z,100732.53
2022-08-21T21:34:22.358Z,100730.59
2022-08-21T21:37:05.120Z,100729.38
2022-08-21T21:39:58.754Z,100727.16
2022-08-21T21:42:31.466Z,100727.16
2022-08-21T21:44:58.242Z,100729.97
2022-08-21T21:47:39.878Z,100735.28
2022-08-21T21:50:31.336Z,100730.16
2022-08-21T21:53:13.496Z,100731.56
2022-08-21T21:56:04.701Z,100723.72
2022-08-21T21:58:41.399Z,100726.50
2022-08-21T22:01:54.805Z,100732.59
2022-08-21T22:04:33.127Z,100731.41
2022-08-21T22:07:25.186Z,100727.00
2022-08-21T22:09:56.546Z,100727.00
2022-08-21T22:12:49.818Z,100737.50
2022-08-21T22:15:26.354Z,100738.25
2022-08-21T22:18:17.108Z,100731.09
2022-08-21T22:20:52.804Z,100729.94
2022-08-21T22:23:24.391Z,100732.44
2022-08-21T22:25:58.558Z,100731.84
2022-08-21T22:28:26.931Z,100735.38
2022-08-21T22:31:10.892Z,100733.31
2022-08-21T22:33:38.029Z,100726.00
2022-08-21T22:36:20.758Z,100732.81
2022-08-21T22:38:47.945Z,100741.50
2022-08-21T22:41:27.966Z,100742.63
2022-08-21T22:44:01.821Z,100738.94
2022-08-21T22:46:50.014Z,100740.56
2022-08-21T22:49:34.101Z,100740.56
2022-08-21T22:52:21.126Z,100740.50
2022-08-21T22:54:51.519Z,100732.63
2022-08-21T22:57:27.316Z,100741.63
2022-08-21T23:00:04.606Z,100746.69
2022-08-21T23:02:31.349Z,100737.63
2022-08-21T23:05:01.446Z,100728.63
2022-08-21T23:07:43.714Z,100740.38
2022-08-21T23:10:20.004Z,100740.03
2022-08-21T23:12:54.214Z,100726.53
2022-08-21T23:15:21.465Z,100724.97
2022-08-21T23:18:25.586Z,100736.47
2022-08-21T23:21:15.522Z,100735.31
2022-08-21T23:24:29.088Z,100736.88
2022-08-21T23:27:14.138Z,100731.44
2022-08-21T23:30:12.322Z,100729.19
2022-08-21T23:32:58.513Z,100727.91
2022-08-21T23:36:10.391Z,100728.50
2022-08-21T23:38:59.455Z,100733.44
2022-08-21T23:41:57.907Z,100723.34
2022-08-21T23:44:36.535Z,100725.34
2022-08-21T23:47:38.453Z,100723.75
2022-08-21T23:50:14.685Z,100722.28
2022-08-21T23:52:54.242Z,100726.31
2022-08-21T23:55:40.524Z,100720.00
2022-08-21T23:58:25.217Z,100723.22
